Ayton, Canada
Current Conditions -  °F | °C
As of 5:00 AM on Tuesday 27 Jan 2015 (Local Time) from CYVV Reporting Station
Few Clouds Few Clouds  
Wind Chill: -6°   Ceiling: Unl
Heat Index:   Visibility: 15mi
Dew Point:   Wind: 10mph
Humidity: 85%   Direction: 50°NE
Pressure: 30.05"   Gusts: NA
Location:  44.05°N, 80.93°W
Report Text: CYVV 271000Z 05009KT 15SM FEW030 M13/M15 A3005 RMK SC2 SLP191
Loading
Personal Weather Stations






























Interactive Weather Map New forecast layout! Learn more

10-Day Weather Forecast

Advertisements
Track Severe Weather on mobile